Data for 10/26/2014

Time Sea-Level Adjusted Pressure Absolute Pressure Temperature Relative Humidity Dew Point Precipitation   
(mb) (inHg) (mb) (inHg) (C) (F) (%) (C) (F) (mm) (in)
00:05 1010 29.83 840 24.81 10.3 50.6 52 1.1 33.9 0 0
00:10 1010 29.83 840 24.81 9.4 49 50 -0.5 31 0 0
00:15 1010 29.83 840 24.81 9.4 49 52 0 32 0 0
00:20 1011 29.85 840 24.81 10 49.9 47 -0.7 30.7 0 0
00:25 1011 29.85 840 24.81 10.1 50.2 49 -0.1 31.8 0 0
00:30 1011 29.85 840 24.81 9.9 49.9 48 -0.4 31.2 0 0
00:35 1011 29.85 840 24.81 10.2 50.4 49 -0.1 31.8 0 0
00:40 1011 29.85 840 24.81 10.2 50.3 50 0.2 32.3 0 0
00:45 1011 29.85 840 24.81 10.2 50.4 46 -0.8 30.5 0 0
00:50 1011 29.85 840 24.81 10.9 51.6 46 -0.4 31.4 0 0
00:55 1011 29.85 841 24.83 11.1 52 46 0 32 0 0
01:00 1012 29.88 841 24.83 11.3 52.4 48 0.9 33.6 0 0
01:05 1012 29.88 841 24.83 11.5 52.8 46 0.5 32.8 0 0
01:10 1012 29.88 841 24.83 12.4 54.3 47 1.6 34.9 0 0
01:15 1012 29.88 841 24.83 12.6 54.7 51 2.9 37.3 0 0
01:20 1012 29.88 842 24.86 12.3 54.2 54 3.5 38.2 0 0
01:25 1012 29.88 842 24.86 11.9 53.3 58 4 39.2 0 0
01:30 1012 29.88 842 24.86 11.2 52.1 60 3.8 38.9 0 0
01:35 1013 29.91 842 24.86 10.6 51 70 5.3 41.5 0 0
01:40 1013 29.91 842 24.86 9.8 49.6 67 4 39.2 0 0
01:45 1013 29.91 842 24.86 9.6 49.4 70 4.4 40 0 0
01:50 1013 29.91 842 24.86 9.4 49 70 4.3 39.7 0 0
01:55 1013 29.91 843 24.89 9.4 48.9 67 3.7 38.6 0 0
02:00 1013 29.91 842 24.86 9.3 48.8 67 3.4 38.2 0 0
02:05 1013 29.91 842 24.86 9.1 48.5 68 3.5 38.3 0 0
02:10 1013 29.91 842 24.86 9 48.2 67 3.3 37.9 0 0
02:15 1013 29.91 842 24.86 8.9 47.9 69 3.4 38.2 0 0
02:20 1013 29.91 842 24.86 8.8 47.8 68 3.3 38 0 0
02:25 1013 29.91 842 24.86 8.7 47.7 68 3.2 37.8 0 0
02:30 1013 29.91 842 24.86 8.5 47.3 71 3.5 38.3 0 0
02:35 1013 29.91 842 24.86 8.3 47 70 3.2 37.7 0 0
02:40 1013 29.91 842 24.86 8.4 47.2 68 2.8 37.1 0 0
02:45 1012 29.88 842 24.86 8.7 47.7 66 2.8 37 0 0
02:50 1012 29.88 841 24.83 9.2 48.5 63 2.6 36.8 0 0
02:55 1012 29.88 841 24.83 9.5 49 63 2.7 36.9 0 0
03:00 1012 29.88 841 24.83 9.3 48.8 64 2.8 37.1 0 0
03:05 1012 29.88 841 24.83 9.4 49 60 2 35.6 0 0
03:10 1012 29.88 841 24.83 9.7 49.4 57 1.6 34.9 0 0
03:15 1012 29.88 841 24.83 9.9 49.8 57 1.9 35.5 0 0
03:20 1012 29.88 841 24.83 9.7 49.4 57 1.5 34.7 0 0
03:25 1012 29.88 841 24.83 9.6 49.3 60 2.2 35.9 0 0
03:30 1012 29.88 841 24.83 9.1 48.4 67 3.4 38.1 0 0
03:35 1012 29.88 842 24.86 8.5 47.2 68 3 37.4 0 0
03:40 1012 29.88 841 24.83 8.2 46.8 69 3 37.3 0 0
03:45 1012 29.88 841 24.83 8 46.4 71 3 37.5 0 0
03:50 1012 29.88 841 24.83 7.7 45.9 72 3 37.4 0 0
03:55 1012 29.88 841 24.83 7.7 45.9 71 2.8 37.1 0 0
04:00 1012 29.88 841 24.83 7.9 46.3 70 2.9 37.2 0 0
04:05 1012 29.88 841 24.83 7.9 46.2 69 2.5 36.5 0 0
04:10 1012 29.88 841 24.83 7.9 46.2 70 2.7 36.9 0 0
04:15 1012 29.88 841 24.83 7.7 45.9 71 2.7 36.9 0 0
04:20 1012 29.88 841 24.83 7.3 45.2 71 2.5 36.5 0 0
04:25 1012 29.88 841 24.83 7.1 44.8 71 2.3 36.2 0 0
04:30 1012 29.88 841 24.83 6.6 43.9 74 2.4 36.3 0 0
04:35 1012 29.88 841 24.83 6.6 43.9 71 1.8 35.2 0 0
04:40 1012 29.88 841 24.83 6.2 43.2 73 1.7 35.1 0 0
04:45 1012 29.88 841 24.83 6.3 43.4 70 1.2 34.2 0 0
04:50 1012 29.88 841 24.83 6.7 44.1 68 1.2 34.1 0 0
04:55 1012 29.88 841 24.83 6.9 44.5 64 0.7 33.3 0 0
05:00 1012 29.88 841 24.83 7.3 45.1 63 0.7 33.3 0 0
05:05 1012 29.88 841 24.83 7 44.5 65 0.9 33.6 0 0
05:10 1012 29.88 841 24.83 6.4 43.5 67 0.6 33.2 0 0
05:15 1012 29.88 841 24.83 6 42.7 67 0.2 32.4 0 0
05:20 1012 29.88 841 24.83 5.9 42.6 69 0.7 33.2 0 0
05:25 1012 29.88 841 24.83 6.2 43.2 68 0.8 33.4 0 0
05:30 1012 29.88 841 24.83 6 42.8 70 0.9 33.7 0 0
05:35 1012 29.88 841 24.83 5.4 41.8 73 1 33.7 0 0
05:40 1012 29.88 841 24.83 3.6 38.6 75 -0.3 31.4 0 0
05:45 1012 29.88 841 24.83 4.8 40.7 69 -0.4 31.3 0 0
05:50 1012 29.88 841 24.83 5.2 41.3 67 -0.4 31.2 0 0
05:55 1012 29.88 841 24.83 5.5 42 66 -0.4 31.3 0 0
06:00 1012 29.88 841 24.83 4.9 40.8 72 0.2 32.3 0 0
06:05 1012 29.88 841 24.83 4.8 40.6 71 -0 31.9 0 0
06:10 1012 29.88 841 24.83 4.7 40.4 70 -0.2 31.6 0 0
06:15 1012 29.88 841 24.83 5.3 41.5 67 -0.3 31.5 0 0
06:20 1012 29.88 841 24.83 6.1 43 65 0 32 0 0
06:25 1012 29.88 841 24.83 6.1 43 67 0.4 32.7 0 0
06:30 1012 29.88 841 24.83 5.5 41.9 71 0.7 33.3 0 0
06:35 1012 29.88 841 24.83 4.9 40.8 73 0.5 32.8 0 0
06:40 1012 29.88 841 24.83 6 42.9 65 -0 32 0 0
06:45 1012 29.88 841 24.83 6.9 44.4 65 0.8 33.4 0 0
06:50 1012 29.88 841 24.83 6.7 44.1 64 0.5 32.8 0 0
06:55 1012 29.88 841 24.83 7 44.6 65 0.8 33.5 0 0
07:00 1012 29.88 841 24.83 5.9 42.6 71 1 33.8 0 0
07:05 1012 29.88 841 24.83 5.2 41.4 73 0.7 33.2 0 0
07:10 1012 29.88 841 24.83 5 41.1 72 0.4 32.7 0 0
07:15 1012 29.88 841 24.83 5.3 41.6 68 -0 32 0 0
07:20 1012 29.88 841 24.83 5.5 41.9 67 -0.1 31.8 0 0
07:25 1012 29.88 841 24.83 5 41 71 0.2 32.4 0 0
07:30 1012 29.88 841 24.83 4.8 40.6 70 -0.3 31.5 0 0
07:35 1012 29.88 841 24.83 4.8 40.7 67 -0.7 30.7 0 0
07:40 1012 29.88 841 24.83 5.5 41.9 64 -0.7 30.7 0 0
07:45 1012 29.88 841 24.83 5.6 42.1 66 -0.3 31.4 0 0
07:50 1012 29.88 841 24.83 5.5 42 62 -1.2 29.8 0 0
07:55 1012 29.88 841 24.83 6.2 43.1 61 -0.8 30.6 0 0
08:00 1012 29.88 841 24.83 7.2 44.9 57 -0.8 30.6 0 0
08:05 1012 29.88 841 24.83 7.4 45.4 57 -0.5 31 0 0
08:10 1012 29.88 841 24.83 7.3 45.1 59 -0.3 31.4 0 0
08:15 1012 29.88 842 24.86 7 44.6 60 -0.3 31.5 0 0
08:20 1012 29.88 842 24.86 7.1 44.8 58 -0.6 31 0 0
08:25 1012 29.88 842 24.86 7.7 45.9 55 -0.6 30.9 0 0
08:30 1012 29.88 842 24.86 8.2 46.8 52 -1.1 29.9 0 0
08:35 1012 29.88 842 24.86 8.6 47.5 53 -0.5 31.1 0 0
08:40 1013 29.91 842 24.86 8.8 47.8 53 -0.3 31.4 0 0
08:45 1013 29.91 842 24.86 8.6 47.4 53 -0.4 31.3 0 0
08:50 1013 29.91 842 24.86 8.3 46.9 61 1.3 34.3 0 0
08:55 1013 29.91 842 24.86 7.5 45.5 63 0.8 33.5 0 0
09:00 1013 29.91 842 24.86 7.2 45 62 0.3 32.6 0 0
09:05 1013 29.91 842 24.86 7.5 45.6 57 -0.3 31.4 0 0
09:10 1013 29.91 842 24.86 7.9 46.2 57 0 32 0 0
09:15 1013 29.91 842 24.86 7.5 45.6 62 0.8 33.4 0 0
09:20 1013 29.91 843 24.89 7.1 44.8 64 0.8 33.5 0 0
09:25 1013 29.91 843 24.89 6.8 44.2 65 0.7 33.3 0 0
09:30 1013 29.91 843 24.89 6.6 43.9 65 0.6 33.1 0 0
09:35 1013 29.91 843 24.89 6.5 43.6 67 0.7 33.3 0 0
09:40 1013 29.91 843 24.89 6.3 43.4 66 0.4 32.8 0 0
09:45 1013 29.91 843 24.89 6.4 43.5 67 0.8 33.4 0 0
09:50 1013 29.91 843 24.89 6.5 43.7 67 0.9 33.6 0 0
09:55 1013 29.91 843 24.89 6.7 44.1 67 1.1 34 0 0
10:00 1013 29.91 843 24.89 7 44.5 65 0.9 33.5 0 0
10:05 1014 29.94 843 24.89 7 44.5 67 1.3 34.4 0 0
10:10 1014 29.94 843 24.89 7.4 45.2 64 1 33.9 0 0
10:15 1013 29.91 843 24.89 7.8 46.1 62 1 33.9 0 0
10:20 1013 29.91 843 24.89 7.4 45.3 63 0.8 33.5 0 0
10:25 1013 29.91 843 24.89 6.8 44.3 65 0.7 33.3 0 0
10:30 1014 29.94 843 24.89 6.8 44.2 66 0.9 33.7 0 0
10:35 1014 29.94 843 24.89 6.9 44.5 65 0.9 33.7 0 0
10:40 1014 29.94 843 24.89 7 44.7 66 1.1 33.9 0 0
10:45 1014 29.94 843 24.89 6.9 44.4 67 1.1 34.1 0 0
10:50 1014 29.94 843 24.89 7.2 45 66 1.3 34.3 0 0
10:55 1014 29.94 843 24.89 7.6 45.6 62 0.8 33.5 0 0
11:00 1014 29.94 843 24.89 8.5 47.4 60 1.2 34.1 0 0
11:05 1014 29.94 843 24.89 8.6 47.5 62 1.7 35.1 0 0
11:10 1014 29.94 843 24.89 8.3 46.9 60 0.9 33.6 0 0
11:15 1014 29.94 843 24.89 8.1 46.5 58 0.2 32.4 0 0
11:20 1014 29.94 843 24.89 7.7 45.9 59 0.3 32.5 0 0
11:25 1014 29.94 843 24.89 7.5 45.6 59 0.1 32.2 0 0
11:30 1014 29.94 843 24.89 7.2 45 60 0 32.1 0 0
11:35 1014 29.94 843 24.89 7.1 44.8 63 0.5 32.8 0 0
11:40 1014 29.94 843 24.89 7.2 45 60 -0.1 31.9 0 0
11:45 1014 29.94 843 24.89 7.3 45.1 60 -0.1 31.9 0 0
11:50 1014 29.94 843 24.89 7.1 44.9 61 0.2 32.4 0 0
11:55 1014 29.94 843 24.89 6.9 44.3 66 0.9 33.6 0 0
12:00 1014 29.94 844 24.92 6.6 44 66 0.8 33.4 0 0
12:05 1014 29.94 844 24.92 6.1 43 72 1.4 34.6 0 0
12:10 1014 29.94 844 24.92 5.4 41.8 77 1.8 35.2 0 0
12:15 1015 29.97 844 24.92 5.2 41.3 79 1.9 35.3 0 0
12:20 1015 29.97 844 24.92 5.5 41.8 76 1.5 34.8 0 0
12:25 1015 29.97 844 24.92 5.5 42 74 1.2 34.2 0 0
12:30 1015 29.97 844 24.92 5.8 42.4 71 0.9 33.6 0 0
12:35 1015 29.97 844 24.92 6.2 43.2 69 1 33.7 0 0
12:40 1015 29.97 844 24.92 6 42.8 67 0.4 32.7 0 0
12:45 1015 29.97 844 24.92 5.7 42.3 67 0.2 32.3 0 0
12:50 1015 29.97 844 24.92 5.6 42.1 66 -0.2 31.6 0 0
12:55 1014 29.94 844 24.92 5.6 42.2 65 -0.4 31.3 0 0
13:00 1014 29.94 844 24.92 5.8 42.5 66 0.1 32.2 0 0
13:05 1014 29.94 843 24.89 6.1 43 66 0.3 32.5 0 0
13:10 1014 29.94 843 24.89 5.9 42.7 65 -0.2 31.6 0 0
13:15 1014 29.94 843 24.89 5.8 42.5 64 -0.6 31 0 0
13:20 1014 29.94 843 24.89 5.8 42.4 66 -0 32 0 0
13:25 1014 29.94 843 24.89 5.6 42.1 69 0.4 32.8 0 0
13:30 1014 29.94 843 24.89 5.3 41.5 71 0.5 33 0 0
13:35 1015 29.97 844 24.92 5 41 69 -0.3 31.4 0 0
13:40 1015 29.97 844 24.92 4 39.2 80 0.9 33.7 0 0
13:45 1015 29.97 844 24.92 3.5 38.2 80 0.3 32.5 0 0
13:50 1015 29.97 844 24.92 3.4 38.1 83 0.7 33.3 0 0
13:55 1015 29.97 844 24.92 3.3 37.9 80 0.2 32.4 0 0
14:00 1015 29.97 844 24.92 3.3 37.9 82 0.5 32.9 0 0
14:05 1015 29.97 844 24.92 3.4 38.2 83 0.9 33.6 .2 0.008
14:10 1015 29.97 844 24.92 3.6 38.5 83 0.9 33.6 0 0
14:15 1015 29.97 844 24.92 3.8 38.9 79 0.6 33 0 0
14:20 1015 29.97 844 24.92 3.8 38.9 77 0.1 32.2 0 0
14:25 1014 29.94 844 24.92 3.9 38.9 77 0.2 32.4 0 0
14:30 1014 29.94 844 24.92 3.8 38.9 77 0.2 32.4 0 0
14:35 1015 29.97 844 24.92 4 39.1 76 0.2 32.3 0 0
14:40 1015 29.97 844 24.92 4 39.2 77 0.3 32.6 0 0
14:45 1015 29.97 844 24.92 4.1 39.3 71 -0.8 30.6 0 0
14:50 1015 29.97 844 24.92 4.1 39.3 74 -0.1 31.7 0 0
14:55 1014 29.94 844 24.92 4.1 39.3 74 -0.2 31.6 0 0
15:00 1014 29.94 844 24.92 4.3 39.7 74 0.1 32.2 0 0
15:05 1014 29.94 844 24.92 4.3 39.8 77 0.7 33.3 0 0
15:10 1014 29.94 844 24.92 4.2 39.6 78 0.7 33.3 0 0
15:15 1014 29.94 844 24.92 4.4 39.8 79 1.1 34 0 0
15:20 1014 29.94 843 24.89 4.5 40.1 80 1.4 34.4 0 0
15:25 1014 29.94 843 24.89 4.7 40.4 79 1.4 34.6 0 0
15:30 1014 29.94 843 24.89 4.6 40.3 80 1.4 34.6 0 0
15:35 1014 29.94 843 24.89 4.7 40.4 77 0.9 33.7 0 0
15:40 1014 29.94 843 24.89 4.7 40.5 75 0.7 33.2 0 0
15:45 1014 29.94 843 24.89 5.3 41.6 69 0.2 32.4 0 0
15:50 1014 29.94 843 24.89 6.4 43.5 68 1 33.7 0 0
15:55 1014 29.94 843 24.89 6.8 44.2 63 0.2 32.4 0 0
16:00 1014 29.94 843 24.89 6.9 44.4 60 -0.2 31.6 0 0
16:05 1014 29.94 843 24.89 6.8 44.3 60 -0.4 31.2 0 0
16:10 1014 29.94 843 24.89 6.5 43.7 61 -0.5 31.2 0 0
16:15 1014 29.94 843 24.89 6.2 43.1 61 -0.9 30.5 0 0
16:20 1014 29.94 843 24.89 6.3 43.4 59 -1.1 30.1 0 0
16:25 1014 29.94 843 24.89 6.1 43 56 -1.9 28.5 0 0
16:30 1014 29.94 843 24.89 6.1 43 60 -1 30.3 0 0
16:35 1014 29.94 843 24.89 6.2 43.2 56 -1.9 28.6 0 0
16:40 1014 29.94 843 24.89 6.4 43.5 51 -2.9 26.7 0 0
16:45 1014 29.94 843 24.89 6.4 43.5 54 -2.1 28.2 0 0
16:50 1014 29.94 844 24.92 6.1 43.1 54 -2.6 27.4 0 0
16:55 1014 29.94 843 24.89 6.1 42.9 54 -2.4 27.6 0 0
17:00 1014 29.94 843 24.89 6 42.8 56 -2.2 28 0 0
17:05 1014 29.94 843 24.89 6.4 43.6 53 -2.5 27.4 0 0
17:10 1014 29.94 843 24.89 6.7 44 53 -2.3 27.8 0 0
17:15 1014 29.94 843 24.89 6.3 43.3 55 -2 28.4 0 0
17:20 1014 29.94 843 24.89 5.9 42.6 55 -2.4 27.7 0 0
17:25 1014 29.94 843 24.89 5.6 42.1 58 -2.1 28.3 0 0
17:30 1014 29.94 843 24.89 5.2 41.4 56 -2.9 26.7 0 0
17:35 1014 29.94 843 24.89 5 41.1 58 -2.5 27.4 0 0
17:40 1014 29.94 843 24.89 5 41 58 -2.6 27.3 0 0
17:45 1014 29.94 843 24.89 5.2 41.3 53 -3.5 25.6 0 0
17:50 1014 29.94 843 24.89 5.2 41.4 56 -2.7 27.1 0 0
17:55 1014 29.94 843 24.89 4.9 40.8 57 -2.8 26.9 0 0
18:00 1014 29.94 843 24.89 4.7 40.4 59 -2.7 27.1 0 0
18:05 1014 29.94 843 24.89 4.5 40.1 56 -3.5 25.8 0 0
18:10 1014 29.94 843 24.89 4.5 40.1 59 -2.9 26.8 0 0
18:15 1014 29.94 843 24.89 4.3 39.7 58 -3.2 26.2 0 0
18:20 1014 29.94 843 24.89 4.2 39.5 59 -3.2 26.3 0 0
18:25 1014 29.94 843 24.89 4 39.3 59 -3.2 26.3 0 0
18:30 1014 29.94 843 24.89 4.1 39.3 60 -3.1 26.5 0 0
18:35 1014 29.94 843 24.89 3.9 39 57 -3.8 25.2 0 0
18:40 1014 29.94 844 24.92 4 39.2 59 -3.4 25.8 0 0
18:45 1014 29.94 844 24.92 4 39.2 55 -4.1 24.6 0 0
18:50 1014 29.94 844 24.92 4.1 39.4 55 -4.2 24.4 0 0
18:55 1014 29.94 844 24.92 4.1 39.4 56 -3.8 25.1 0 0
19:00 1015 29.97 844 24.92 4 39.2 56 -3.9 25 0 0
19:05 1015 29.97 844 24.92 3.8 38.8 59 -3.6 25.6 0 0
19:10 1015 29.97 844 24.92 3.4 38.1 59 -3.7 25.3 0 0
19:15 1015 29.97 844 24.92 3.3 37.9 60 -3.7 25.3 0 0
19:20 1015 29.97 844 24.92 3.4 38.1 57 -4.3 24.2 0 0
19:25 1015 29.97 844 24.92 3.6 38.6 56 -4.3 24.3 0 0
19:30 1015 29.97 844 24.92 3.8 38.9 55 -4.5 23.9 0 0
19:35 1015 29.97 844 24.92 3.9 39.1 55 -4.3 24.3 0 0
19:40 1015 29.97 844 24.92 4 39.2 55 -4.3 24.3 0 0
19:45 1015 29.97 844 24.92 4 39.3 54 -4.4 24.1 0 0
19:50 1015 29.97 844 24.92 4 39.2 55 -4.1 24.5 0 0
19:55 1015 29.97 844 24.92 3.8 38.8 56 -4.2 24.5 0 0
20:00 1015 29.97 844 24.92 3.6 38.5 56 -4.4 24.2 0 0
20:05 1015 29.97 844 24.92 3.5 38.3 57 -4.3 24.3 0 0
20:10 1015 29.97 844 24.92 3.2 37.7 58 -4.3 24.2 0 0
20:15 1015 29.97 844 24.92 2.9 37.3 59 -4.3 24.2 0 0
20:20 1015 29.97 844 24.92 2.7 36.9 60 -4.3 24.2 0 0
20:25 1015 29.97 844 24.92 2.6 36.6 60 -4.4 24.1 0 0
20:30 1015 29.97 844 24.92 2.6 36.6 60 -4.4 24 0 0
20:35 1015 29.97 844 24.92 2.4 36.4 61 -4.4 24.1 0 0
20:40 1015 29.97 844 24.92 2.1 35.9 63 -4.3 24.3 0 0
20:45 1015 29.97 844 24.92 1.6 34.9 65 -4.3 24.3 0 0
20:50 1015 29.97 844 24.92 1.2 34.2 66 -4.5 23.9 0 0
20:55 1015 29.97 845 24.95 1 33.7 67 -4.5 23.8 0 0
21:00 1015 29.97 845 24.95 0.3 32.5 69 -4.8 23.4 0 0
21:05 1015 29.97 845 24.95 0.9 33.6 65 -4.9 23.2 0 0
21:10 1015 29.97 845 24.95 1.4 34.4 65 -4.5 23.9 0 0
21:15 1015 29.97 845 24.95 1.3 34.4 65 -4.6 23.7 0 0
21:20 1015 29.97 845 24.95 0.8 33.5 70 -4.1 24.7 0 0
21:25 1015 29.97 845 24.95 -0.5 31.1 77 -4.1 24.6 0 0
21:30 1015 29.97 845 24.95 -0.9 30.5 76 -4.6 23.7 0 0
21:35 1015 29.97 844 24.92 -0.9 30.3 75 -4.9 23.2 0 0
21:40 1015 29.97 845 24.95 -0.8 30.7 72 -5.2 22.7 0 0
21:45 1015 29.97 845 24.95 -0.7 30.7 74 -4.8 23.3 0 0
21:50 1015 29.97 845 24.95 -1.2 29.9 75 -5 23 0 0
21:55 1015 29.97 845 24.95 -1.1 29.9 73 -5.3 22.5 0 0
22:00 1015 29.97 844 24.92 -0.8 30.6 73 -5.1 22.8 0 0
22:05 1015 29.97 844 24.92 -0.3 31.4 70 -5.2 22.7 0 0
22:10 1015 29.97 845 24.95 0.2 32.4 70 -4.6 23.7 0 0
22:15 1015 29.97 845 24.95 -0 31.9 71 -4.7 23.5 0 0
22:20 1016 30 845 24.95 -0.2 31.7 71 -4.8 23.4 0 0
22:25 1016 30 845 24.95 -0.2 31.6 71 -4.9 23.1 0 0
22:30 1016 30 845 24.95 -0.2 31.6 71 -4.8 23.3 0 0
22:35 1016 30 845 24.95 -0.1 31.7 70 -5 23 0 0
22:40 1016 30 845 24.95 0.1 32.1 72 -4.4 24.1 0 0
22:45 1016 30 845 24.95 -0.1 31.8 74 -4.3 24.2 0 0
22:50 1016 30 845 24.95 -0.4 31.2 76 -4.1 24.6 0 0
22:55 1016 30 845 24.95 -0.5 31.1 74 -4.5 23.8 0 0
23:00 1016 30 845 24.95 -0.6 31 75 -4.5 23.9 0 0
23:05 1016 30 845 24.95 -0.7 30.7 74 -4.8 23.4 0 0
23:10 1016 30 845 24.95 -0.8 30.5 73 -5 23 0 0
23:15 1016 30 845 24.95 -0.9 30.4 74 -5 23 0 0
23:20 1016 30 845 24.95 -0.9 30.4 73 -5.2 22.7 0 0
23:25 1016 30 845 24.95 -0.6 30.8 73 -4.9 23.2 0 0
23:30 1016 30 845 24.95 -0.8 30.6 73 -4.9 23.1 0 0
23:35 1016 30 845 24.95 -0.5 31.1 72 -5 23 0 0
23:40 1016 30 845 24.95 -0.3 31.4 71 -5 23 0 0
23:45 1016 30 845 24.95 0.1 32.3 69 -4.8 23.4 0 0
23:50 1016 30 845 24.95 0.4 32.8 69 -4.6 23.8 0 0
23:55 1016 30 845 24.95 0.7 33.3 67 -4.8 23.4 0 0
24:00 1016 30 845 24.95 1.2 34.2 65 -4.6 23.8 0 0